Bucureşti, România

07:38 AM EET on februarie 07, 2016 (GMT +0200)
NX Data | | Change Station
CLOSE
Current Station
Staţie meteo personală
Location: Bucharest, BUCHAREST
Elevation: 279 ft
Nearby Weather Stations

Elev 279 ft 44.48 °N, 26.12 °E | Updated 1 minute ago

Fog
Ceaţă
29.1 °F
Feels Like 29 °F
N
0.0
Vânt variabil Vânt from SSE
Gusts 0.0 mph

astăzi
High -- | Low -- °F
--% Chance of Precip.
Ieri
High -- | Low -- °F
Precip. -- inch
Presiunea 30.36 inch
Vizibilitatea 1.6 mile
Nori
Vânt rece 29 °F
Punctul de rouă 25 °F
Umiditatea 83%
Precipitaţii 0.00 inch
Adâncimea zăpezii Not available.
7:27 AM 5:32 PM
Semilună în descreştere, 3% visible
METAR LRBS 070530Z VRB02KT 2500 MIFG BR NSC M05/M06 Q1028 TEMPO 1500 BR
Presiunea 30.36 inch
Vizibilitatea 1.6 mile
Nori
Vânt rece 29 °F
Punctul de rouă 25 °F
Umiditatea 83%
Precipitaţii 0.00 inch
Adâncimea zăpezii Not available.
7:27 AM 5:32 PM
Semilună în descreştere, 3% visible
METAR LRBS 070530Z VRB02KT 2500 MIFG BR NSC M05/M06 Q1028 TEMPO 1500 BR

10-Day Weather Forecast

Almanac

Astronomie

Feb. 07, 2016 Răsărit Apus
Timpul Actual
Crepusculul Civil
Crepusculul nautic
Răsărit Astronomic
Luna
Durata zilei lumină
Lungimea zilei
Tomorrow will be .
, % of the Moon is Illuminated

Extremele de azi

Country Highs Country Lows

Community

WunderPhotos

Upload Photos

1,891,163 photos uploaded!

WunderBlog® & News

Nearby

Calitatea aerului

  Calitatea aerului Index de calitate a aerului Poluat
Not available.

Adâncimea zapezii

Station Depth Elevation

Earthquake Activity

Oraş Distance Mag. Time & Date
Minimum magnitude displayed is 2.5.

Coastal Water Temperatures

Locul Temperatura

Stations

Nearby Weather Stations

Locaţia staţiei Temp Vânt rece Punctul de rouă Umiditatea Vânt Precip. Elev Actualizare Type